Gloucester City, NJ (08030)

6:02 AM EDT on August 27, 2016 (GMT -0400)
Creek Road/Larc School | | Change Station

Elev 13 ft 39.87 °N, 75.12 °W | Updated 3 minutes ago

Clear
Clear
70.3 °F
Feels Like 70.3 °F
N
0.0
Wind Variable Wind from NNE

Today
High -- | Low -- °F
--% Chance of Precip.
Yesterday
High -- | Low -- °F
Precip. -- in
Pressure 30.14 in
Visibility 10.0 miles
Clouds Clear
Dew Point 66 °F
Humidity 85%
Rainfall 0.00 in
Snow Depth Not available.
6:24 AM 7:38 PM
Waning Crescent, 26% visible
METAR KPHL 270954Z 36006KT 10SM CLR 23/18 A3014 RMK AO2 SLP205 T02330178 $
Pressure 30.14 in
Visibility 10.0 miles
Clouds Clear
Dew Point 66 °F
Humidity 85%
Rainfall 0.00 in
Snow Depth Not available.
6:24 AM 7:38 PM
Waning Crescent, 26% visible
METAR KPHL 270954Z 36006KT 10SM CLR 23/18 A3014 RMK AO2 SLP205 T02330178 $

10-Day Weather Forecast

Almanac

Astronomy

Aug. 27, 2016 Rise Set
Actual Time
Civil Twilight
Nautical Twilight
Astronomical Twilight
Moon
Length of Visible Light
Length of Day
Tomorrow will be .
, % of the Moon is Illuminated

Today's Extremes

State Highs State Lows

Community

WunderPhotos

Upload Photos

1,935,313 photos uploaded!

WunderBlog® & News

Nearby

Air Quality

  Air Quality AQ Index Pollutant
Not available.

Snow Depth

Station Depth Elevation

Earthquake Activity

City Distance Mag. Time & Date
Minimum magnitude displayed is 2.5.

Coastal Water Temperatures

Place Temperature

Stations

Nearby Weather Stations

Station Location Temp. Windchill Dew Point Humidity Wind Precip. Elev Updated Type
                   

Watches & Warnings

There are currently no watches in effect.